This is the latest recevied weather packets stored in our database for station/object KI4HRG. If no packets are shown the sender has not sent any weather packets the latest 10 day(s).
| Time | Temp. | Humidity | Pressure | Rain* | Wind** | Luminosity | Snow |
|---|---|---|---|---|---|---|---|
| 1788038139 | 33.33° C | 59% | 1016.9 hPa | 0 mm | - | 369 W/m² | - |
| 1788037838 | 33.33° C | 60% | 1016.9 hPa | 0 mm | - | 360 W/m² | - |
| 1788037533 | 32.78° C | 60% | 1016.9 hPa | 0 mm | - | 384 W/m² | - |
| 1788037229 | 32.78° C | 61% | 1016.9 hPa | 0 mm | - | 144 W/m² | - |
| 1788036927 | 33.33° C | 60% | 1017.2 hPa | 0 mm | - | 184 W/m² | - |
| 1788036625 | 33.33° C | 59% | 1017.2 hPa | 0 mm | - | 152 W/m² | - |
| 1788036320 | 33.89° C | 58% | 1017.3 hPa | 0 mm | - | 495 W/m² | - |
| 1788036015 | 33.33° C | 60% | 1017.3 hPa | 0 mm | - | 549 W/m² | - |
| 1788035714 | 32.78° C | 59% | 1017.3 hPa | 0 mm | - | 563 W/m² | - |
| 1788035410 | 32.78° C | 59% | 1017.3 hPa | 0 mm | - | 144 W/m² | - |
| 1788035105 | 32.78° C | 59% | 1017.3 hPa | 0 mm | - | 118 W/m² | - |
| 1788034801 | 32.78° C | 60% | 1017.3 hPa | 0 mm | - | 103 W/m² | - |
| 1788034497 | 33.89° C | 59% | 1017.6 hPa | 0 mm | - | 149 W/m² | - |
| 1788034193 | 33.89° C | 57% | 1017.6 hPa | 0 mm | - | 414 W/m² | - |
| 1788033892 | 33.89° C | 58% | 1017.7 hPa | 0 mm | - | 622 W/m² | - |
| 1788033591 | 33.89° C | 59% | 1017.6 hPa | 0 mm | - | 633 W/m² | - |
| 1788033286 | 33.89° C | 58% | 1017.8 hPa | 0 mm | - | 522 W/m² | - |
| 1788032982 | 32.78° C | 60% | 1017.9 hPa | 0 mm | - | 488 W/m² | - |
| 1788032682 | 32.78° C | 60% | 1017.7 hPa | 0 mm | - | 601 W/m² | - |
| 1788032376 | 33.33° C | 59% | 1017.8 hPa | 0 mm | - | 539 W/m² | - |
| 1788032071 | 32.78° C | 59% | 1017.9 hPa | 0 mm | - | 657 W/m² | - |
| 1788031767 | 32.78° C | 61% | 1018.1 hPa | 0 mm | - | 628 W/m² | - |
| 1788031461 | 33.89° C | 55% | 1018.1 hPa | 0 mm | - | 632 W/m² | - |
| 1788031156 | 33.33° C | 59% | 1018.2 hPa | 0 mm | - | 632 W/m² | - |
| 1788030855 | 33.33° C | 60% | 1018.3 hPa | 0 mm | - | 675 W/m² | - |
* Rain latest hour (hover to see other rain measurements)
** Current wind speed in m/s (hover to see current wind gust speed)